Hovedside
METAR-TAF:

METAR-TAF

Lufthavner :

Tarawa, Kiribati

breddegrad: 01-21N, lengdegrad: 172-55E, høyde over havet: 2 m

Gjeldene værobservasjon

Denne rapporten ble laget for 13 minutter siden, klokken 02:00 UTC
Vind 13 kt fra Øst
Temperatur 30°C
Luftfuktighet 66%
Trykk 1005 hPa
Sikt 10 km eller mer
Få skyer i en høyde av 2000 ft
Brutte skyer i en høyde av 30000 ft

METAR: NGTA 220200Z 08013KT 9999 FEW020 BKN300 30/23 Q1005

Tid: 16:13 (02:13 UTC)

Varsel

Denne rapporten ble laget for 2 timer og 50 minutter siden, klokken 23:23 UTC
Varsel gyldig fra 22. klokken 00 UTC til 22. klokken 24 UTC
Vind 13 kt fra Nord-nordøst
Sikt 10 km eller mer
Spredte skyer i en høyde av 1800 ft
Blir
fra 22. klokken 04 UTC til 22. klokken 06 UTC
Vind 3 kt fra skiftende retning

TAF: NGTA 212323Z 2200/2224 03013KT 9999 SCT018 BECMG 2204/2206 VRB03KT

Værobservasjoner og værvarsel for over 4000 flyplasser (METAR- og TAF-rapporter).

Tilgjengelige stasjoner er representert av de røde og gule prikkene på kartet.

Hold musepekeren over prikken for å se navnet på stasjonen.

Klikk så for å se værobservasjoner og -varsler.

For å forandre kartet kan du klikke på den grønne knappen med svart kryss for å zoome inn, på den grønne knappen med strek for å zoome ut, eller på de grønne pilene for å se tilstøtende kart.


METAR-TAF: